Time;durP1;ratioP1;P1;durP2;ratioP2;P2;SDS_P1;SDS_P2;PMS_P1;PMS_P2;Temp;Humidity;BMP_temperature;BMP_pressure;BME280_temperature;BME280_humidity;BME280_pressure;Samples;Min_cycle;Max_cycle;Signal;HPM_P1;HPM_P2
2023/10/19 00:02:12;;;;;;;26.37;17.77;;;;;;;-143.21;81.25;72924.97;5071728;28;20628;-75
2023/10/19 00:04:40;;;;;;;29.53;17.87;;;;;;;-143.21;81.34;72934.91;5071473;28;20688;-75
2023/10/19 00:07:08;;;;;;;26.27;17.33;;;;;;;-143.21;81.47;72926.97;5070951;28;20229;-75
2023/10/19 00:09:37;;;;;;;28.70;18.23;;;;;;;-143.21;81.71;72919.03;5071350;28;20193;-76
2023/10/19 00:12:06;;;;;;;27.47;18.67;;;;;;;-143.21;81.18;72913.09;5071596;28;20600;-76
2023/10/19 00:14:33;;;;;;;28.83;17.50;;;;;;;-143.21;80.73;72921.00;5070956;28;20237;-76
2023/10/19 00:17:05;;;;;;;23.43;15.47;;;;;;;-143.21;80.64;72915.06;5071791;28;20209;-76
2023/10/19 00:19:39;;;;;;;28.33;17.70;;;;;;;-143.21;80.47;72915.06;5071295;28;20190;-74
2023/10/19 00:22:11;;;;;;;27.40;17.67;;;;;;;-143.21;80.96;72907.13;5070746;28;20209;-74
2023/10/19 00:24:36;;;;;;;28.80;17.70;;;;;;;-143.21;80.01;72915.06;5070584;28;20650;-76
2023/10/19 00:27:15;;;;;;;29.37;18.37;;;;;;;-143.21;80.01;72911.09;5071296;28;20266;-75
2023/10/19 00:29:48;;;;;;;26.33;16.90;;;;;;;-143.21;79.88;72911.09;5070609;28;20257;-75
2023/10/19 00:32:16;;;;;;;26.30;16.63;;;;;;;-143.21;80.37;72917.06;5070907;28;20205;-75
2023/10/19 00:34:50;;;;;;;26.60;17.40;;;;;;;-143.21;80.84;72919.03;5070527;28;20683;-75
2023/10/19 00:37:19;;;;;;;36.03;17.23;;;;;;;-143.21;80.78;72917.06;5070227;28;20208;-76
2023/10/19 00:39:50;;;;;;;26.50;16.27;;;;;;;-143.21;80.56;72917.06;5070787;28;20292;-76
2023/10/19 00:42:23;;;;;;;28.20;17.10;;;;;;;-143.21;80.97;72923.00;5070771;28;20292;-76
2023/10/19 00:44:53;;;;;;;27.90;16.43;;;;;;;-143.21;80.50;72921.00;5070842;28;20247;-76
2023/10/19 00:47:24;;;;;;;22.97;16.17;;;;;;;-143.21;80.56;72936.88;5071192;28;20204;-76
2023/10/19 00:49:52;;;;;;;24.43;14.80;;;;;;;-143.21;79.32;72954.72;5070925;28;20660;-76
2023/10/19 00:52:23;;;;;;;21.30;14.77;;;;;;;-143.21;79.73;72990.44;5070777;28;20202;-76
2023/10/19 00:54:55;;;;;;;23.23;14.80;;;;;;;-143.21;80.88;72998.38;5070851;28;20699;-76
2023/10/19 00:57:32;;;;;;;23.47;15.63;;;;;;;-143.21;82.27;73006.31;5070921;28;20205;-76
2023/10/19 01:00:11;;;;;;;23.40;15.77;;;;;;;-143.21;82.94;72996.38;5071070;28;20288;-76
2023/10/19 01:02:43;;;;;;;24.77;15.10;;;;;;;-143.21;83.07;72994.41;5070889;28;20589;-75
2023/10/19 01:05:13;;;;;;;24.70;16.37;;;;;;;-143.21;83.25;72986.47;5070787;28;20577;-77
2023/10/19 01:07:41;;;;;;;25.23;15.60;;;;;;;-143.21;82.62;72988.47;5069318;28;20715;-76
2023/10/19 01:10:11;;;;;;;24.33;15.70;;;;;;;-143.21;82.05;72980.53;5070137;28;20197;-76
2023/10/19 01:12:39;;;;;;;22.60;15.60;;;;;;;-143.21;82.44;72978.53;5070381;28;20648;-76
2023/10/19 01:15:16;;;;;;;23.47;15.90;;;;;;;-143.21;81.72;72970.59;5070755;28;20257;-76
2023/10/19 01:17:44;;;;;;;27.30;17.00;;;;;;;-143.21;81.63;72978.53;5070761;28;20189;-76
2023/10/19 01:20:18;;;;;;;27.77;16.70;;;;;;;-143.21;81.29;72976.56;5070770;28;20240;-76
2023/10/19 01:22:53;;;;;;;34.00;16.70;;;;;;;-143.21;81.36;72976.56;5067440;28;20202;-76
2023/10/19 01:25:25;;;;;;;27.33;16.03;;;;;;;-143.21;80.81;72970.59;5070324;28;20254;-77
2023/10/19 01:27:57;;;;;;;24.53;16.37;;;;;;;-143.21;80.52;72982.50;5070376;28;20276;-76
2023/10/19 01:30:26;;;;;;;28.63;17.10;;;;;;;-143.21;80.46;72982.50;5069846;28;20577;-75
2023/10/19 01:32:54;;;;;;;25.90;16.80;;;;;;;-143.21;79.78;72974.56;5065749;28;20201;-74
2023/10/19 01:35:21;;;;;;;25.70;16.53;;;;;;;-143.21;79.79;72972.59;5055102;28;20233;-74
2023/10/19 01:37:47;;;;;;;25.50;16.67;;;;;;;-143.21;79.49;72974.56;5072065;28;20271;-74
2023/10/19 01:40:20;;;;;;;24.47;16.97;;;;;;;-143.21;79.06;72978.53;5074579;28;20241;-77
2023/10/19 01:42:47;;;;;;;35.17;17.00;;;;;;;-143.21;79.43;72980.53;5074296;28;20202;-75
2023/10/19 01:45:14;;;;;;;25.43;16.97;;;;;;;-143.21;79.91;72990.44;5073997;28;20205;-75
2023/10/19 01:47:42;;;;;;;29.23;18.00;;;;;;;-143.21;79.67;73000.34;5073728;28;20209;-76
2023/10/19 01:50:19;;;;;;;31.63;18.10;;;;;;;-143.21;80.18;73006.31;5059847;28;20220;-75
2023/10/19 01:52:47;;;;;;;28.50;17.70;;;;;;;-143.21;80.33;72994.41;5074388;28;20220;-75
2023/10/19 01:55:20;;;;;;;28.63;17.13;;;;;;;-143.21;80.05;72984.50;5074456;28;20243;-75
2023/10/19 01:57:47;;;;;;;27.20;17.60;;;;;;;-143.21;79.56;72986.47;5074320;28;20209;-75
2023/10/19 02:00:22;;;;;;;27.77;16.97;;;;;;;-143.21;79.54;72986.47;5074080;28;20212;-75
2023/10/19 02:02:50;;;;;;;31.43;17.90;;;;;;;-143.21;79.91;72994.41;5073737;28;20282;-74
2023/10/19 02:05:18;;;;;;;27.90;17.50;;;;;;;-143.21;78.95;72974.56;5073795;28;20201;-75
2023/10/19 02:07:44;;;;;;;27.80;17.23;;;;;;;-143.21;79.13;72982.50;5073657;28;20210;-74
2023/10/19 02:10:11;;;;;;;23.17;16.30;;;;;;;-143.21;79.33;72994.41;5073671;28;20775;-75
2023/10/19 02:12:42;;;;;;;23.73;15.70;;;;;;;-143.21;79.44;72996.38;5073867;28;20263;-75
2023/10/19 02:15:09;;;;;;;29.57;16.93;;;;;;;-143.21;80.18;73012.25;5074143;28;20248;-75
2023/10/19 02:17:35;;;;;;;31.47;17.70;;;;;;;-143.21;79.71;73014.25;5073551;28;20656;-75
2023/10/19 02:20:03;;;;;;;31.93;18.20;;;;;;;-143.21;79.42;73016.22;5073558;28;20253;-76
2023/10/19 02:22:29;;;;;;;31.73;17.07;;;;;;;-143.21;79.66;73069.78;5073626;28;20219;-76
2023/10/19 02:24:56;;;;;;;28.33;17.97;;;;;;;-143.21;80.76;73103.50;5073138;28;20197;-75
2023/10/19 02:27:22;;;;;;;30.10;18.70;;;;;;;-143.21;81.77;73083.66;5073215;28;20267;-76
2023/10/19 02:29:51;;;;;;;30.43;19.10;;;;;;;-143.21;82.41;73089.63;5072460;28;20233;-76
2023/10/19 02:32:18;;;;;;;28.73;19.30;;;;;;;-143.21;83.02;73089.63;5073488;28;20284;-75
2023/10/19 02:34:46;;;;;;;32.23;19.17;;;;;;;-143.21;83.31;73067.78;5072933;28;20275;-77
2023/10/19 02:37:12;;;;;;;30.70;18.90;;;;;;;-143.21;83.16;73061.84;5072483;28;20197;-78
2023/10/19 02:39:39;;;;;;;31.30;18.43;;;;;;;-143.21;83.33;73059.88;5072375;28;20201;-78
2023/10/19 02:42:05;;;;;;;30.37;18.53;;;;;;;-143.21;82.94;73047.97;5072806;28;20197;-77
2023/10/19 02:44:32;;;;;;;29.80;19.03;;;;;;;-143.21;82.37;73042.00;5072823;28;20661;-80
2023/10/19 02:46:59;;;;;;;28.87;18.47;;;;;;;-143.21;82.08;73034.06;5072446;28;20197;-77
2023/10/19 02:49:30;;;;;;;32.40;18.27;;;;;;;-143.21;82.28;73040.03;5072667;28;20201;-77
2023/10/19 02:52:02;;;;;;;32.40;18.30;;;;;;;-143.21;82.22;73034.06;5072841;28;20193;-77
2023/10/19 02:54:32;;;;;;;30.00;17.93;;;;;;;-143.21;82.11;73030.09;5072145;28;20201;-77
2023/10/19 02:56:58;;;;;;;28.00;18.13;;;;;;;-143.21;82.02;73042.00;5072310;28;20208;-78
2023/10/19 02:59:28;;;;;;;29.40;18.37;;;;;;;-143.21;81.88;73045.97;5072188;28;20197;-77
2023/10/19 03:02:00;;;;;;;33.33;18.77;;;;;;;-143.21;81.75;73044.00;5072530;28;20358;-77
2023/10/19 03:04:29;;;;;;;31.70;17.83;;;;;;;-143.21;80.88;73040.03;5072503;28;20582;-77
2023/10/19 03:06:56;;;;;;;28.83;19.50;;;;;;;-143.21;80.55;73045.97;5072794;28;20244;-77
2023/10/19 03:09:28;;;;;;;34.07;20.30;;;;;;;-143.21;80.51;73032.09;5071964;28;20689;-77
2023/10/19 03:11:59;;;;;;;32.80;20.17;;;;;;;-143.21;79.95;73034.06;5072551;28;20563;-77
2023/10/19 03:14:26;;;;;;;32.93;21.27;;;;;;;-143.21;80.19;73030.09;5072180;28;20581;-77
2023/10/19 03:16:52;;;;;;;35.37;21.97;;;;;;;-143.21;80.60;73042.00;5072514;28;20217;-77
2023/10/19 03:19:20;;;;;;;35.07;21.57;;;;;;;-143.21;80.60;73049.94;5072332;28;20228;-76
2023/10/19 03:21:49;;;;;;;37.80;21.97;;;;;;;-143.21;80.77;73051.94;5071309;28;20205;-76
2023/10/19 03:24:23;;;;;;;36.63;21.37;;;;;;;-143.21;80.96;73055.91;5071675;28;20221;-76
2023/10/19 03:26:48;;;;;;;33.33;23.03;;;;;;;-143.21;80.73;73049.94;5069831;28;20194;-76
2023/10/19 03:29:18;;;;;;;37.77;21.87;;;;;;;-143.21;80.71;73061.84;5071404;28;20247;-77
2023/10/19 03:31:45;;;;;;;34.40;22.20;;;;;;;-143.21;80.50;73055.91;5072032;28;20205;-76
2023/10/19 03:34:16;;;;;;;40.13;23.00;;;;;;;-143.21;80.34;73051.94;5055439;28;20222;-76
2023/10/19 03:36:43;;;;;;;36.40;22.97;;;;;;;-143.21;79.79;73049.94;5051925;28;20222;-75
2023/10/19 03:39:15;;;;;;;38.53;22.83;;;;;;;-143.21;79.65;73040.03;5069711;28;20251;-75
2023/10/19 03:41:43;;;;;;;38.97;21.97;;;;;;;-143.21;79.42;73038.03;5071256;28;20241;-75
2023/10/19 03:44:14;;;;;;;39.90;23.00;;;;;;;-143.21;79.12;73030.09;5071538;28;20259;-76
2023/10/19 03:46:52;;;;;;;37.13;22.03;;;;;;;-143.21;79.63;73040.03;5071382;28;20198;-76
2023/10/19 03:49:20;;;;;;;37.77;21.07;;;;;;;-143.21;79.98;73042.00;5071344;28;20197;-76
2023/10/19 03:51:59;;;;;;;35.47;20.03;;;;;;;-143.21;80.30;73063.84;5070885;28;20209;-76
2023/10/19 03:54:32;;;;;;;37.83;21.80;;;;;;;-143.21;80.73;73111.44;5071151;28;20209;-76
2023/10/19 03:57:03;;;;;;;40.47;23.40;;;;;;;-143.21;81.05;73131.28;5071377;28;20308;-77
2023/10/19 03:59:33;;;;;;;40.60;24.60;;;;;;;-143.21;82.08;73123.34;5070511;28;20225;-77
2023/10/19 04:02:02;;;;;;;42.93;25.10;;;;;;;-143.21;82.89;73123.34;5071685;28;20197;-77
2023/10/19 04:04:30;;;;;;;39.97;23.50;;;;;;;-143.21;82.83;73115.41;5071527;28;20197;-77
2023/10/19 04:06:58;;;;;;;44.00;24.23;;;;;;;-143.21;82.88;73111.44;5071315;28;20234;-77
2023/10/19 04:09:28;;;;;;;42.17;24.57;;;;;;;-143.21;82.64;73111.44;5070904;28;20197;-77
2023/10/19 04:11:57;;;;;;;39.20;23.90;;;;;;;-143.21;82.60;73105.47;5070241;28;20213;-76
2023/10/19 04:14:24;;;;;;;43.93;23.77;;;;;;;-143.21;82.38;73095.56;5070582;28;20205;-77
2023/10/19 04:16:51;;;;;;;39.53;25.07;;;;;;;-143.21;82.42;73093.59;5071254;28;20564;-76
2023/10/19 04:19:18;;;;;;;43.57;25.63;;;;;;;-143.21;82.36;73093.59;5071238;28;20204;-77
2023/10/19 04:21:46;;;;;;;42.10;26.90;;;;;;;-143.21;82.35;73089.63;5070838;28;20201;-77
2023/10/19 04:24:13;;;;;;;40.17;26.30;;;;;;;-143.21;82.05;73089.63;5071083;28;20292;-77
2023/10/19 04:26:40;;;;;;;52.43;29.17;;;;;;;-143.21;82.18;73081.69;5070680;28;20256;-77
2023/10/19 04:29:11;;;;;;;49.50;30.97;;;;;;;-143.21;81.89;73085.66;5070896;28;20225;-79
2023/10/19 04:31:41;;;;;;;68.07;36.20;;;;;;;-143.21;81.52;73069.78;5071120;28;20178;-78
2023/10/19 04:34:08;;;;;;;74.80;38.77;;;;;;;-143.21;81.28;73073.75;5071029;28;20205;-78
2023/10/19 04:36:35;;;;;;;83.77;43.90;;;;;;;-143.21;81.08;73069.78;5070971;28;20217;-78
2023/10/19 04:39:02;;;;;;;88.13;46.87;;;;;;;-143.21;80.63;73061.84;5071109;28;20204;-78
2023/10/19 04:41:29;;;;;;;98.07;49.63;;;;;;;-143.21;80.66;73077.72;5070866;28;20193;-78
2023/10/19 04:43:58;;;;;;;107.03;51.37;;;;;;;-143.21;80.63;73067.78;5071144;28;20190;-78
2023/10/19 04:46:29;;;;;;;85.60;44.20;;;;;;;-143.21;80.87;73059.88;5070653;28;20739;-77
2023/10/19 04:48:55;;;;;;;74.90;38.50;;;;;;;-143.21;80.60;73059.88;5071252;28;20213;-77
2023/10/19 04:51:22;;;;;;;72.83;39.00;;;;;;;-143.21;80.58;73053.91;5070737;28;20645;-77
2023/10/19 04:53:49;;;;;;;86.60;43.27;;;;;;;-143.21;80.71;73053.91;5070459;28;20548;-77
2023/10/19 04:56:16;;;;;;;117.17;51.97;;;;;;;-143.21;80.47;73053.91;5069645;28;20213;-77
2023/10/19 04:58:43;;;;;;;88.07;43.10;;;;;;;-143.21;80.84;73053.91;5050421;28;20212;-76
2023/10/19 05:01:11;;;;;;;84.20;42.60;;;;;;;-143.21;80.96;73061.84;5050798;28;20194;-77
2023/10/19 05:03:39;;;;;;;79.27;39.87;;;;;;;-143.21;80.99;73061.84;5050141;28;20195;-77
2023/10/19 05:06:07;;;;;;;76.47;39.03;;;;;;;-143.21;80.97;73051.94;5050141;28;20198;-78
2023/10/19 05:08:33;;;;;;;65.30;37.37;;;;;;;-143.21;81.18;73069.78;5050891;28;20196;-77
2023/10/19 05:11:00;;;;;;;75.07;36.97;;;;;;;-143.21;81.76;73067.78;5071924;28;20588;-77
2023/10/19 05:13:28;;;;;;;55.30;30.00;;;;;;;-143.21;82.36;73071.75;5073800;28;20212;-76
2023/10/19 05:15:56;;;;;;;49.77;28.50;;;;;;;-143.21;82.99;73059.88;5074633;28;20221;-76
2023/10/19 05:18:23;;;;;;;55.30;30.17;;;;;;;-143.21;83.60;73055.91;5074276;28;20749;-76
2023/10/19 05:20:56;;;;;;;66.57;34.10;;;;;;;-143.21;83.46;73045.97;5074311;28;20996;-77
2023/10/19 05:23:24;;;;;;;57.33;31.87;;;;;;;-143.21;83.91;73042.00;5073883;28;20619;-77
2023/10/19 05:25:53;;;;;;;63.87;34.90;;;;;;;-143.21;83.96;73038.03;5073989;28;20193;-76
2023/10/19 05:28:21;;;;;;;65.93;33.27;;;;;;;-143.21;83.62;73024.16;5074073;28;20205;-77
2023/10/19 05:30:49;;;;;;;58.97;33.03;;;;;;;-143.21;83.63;73026.16;5074234;28;20230;-77
2023/10/19 05:33:16;;;;;;;68.90;33.27;;;;;;;-143.21;83.89;73028.13;5072746;28;20672;-78
2023/10/19 05:35:43;;;;;;;70.00;37.73;;;;;;;-143.21;83.78;73022.19;5074069;28;20232;-77
2023/10/19 05:38:11;;;;;;;82.43;43.60;;;;;;;-143.21;83.74;73014.25;5056465;28;20202;-77
2023/10/19 05:40:38;;;;;;;80.53;41.83;;;;;;;-143.21;83.65;73012.25;5067251;28;20264;-77
2023/10/19 05:43:07;;;;;;;80.60;42.07;;;;;;;-143.21;83.50;73002.34;5053402;28;20201;-77
2023/10/19 05:45:36;;;;;;;70.43;41.13;;;;;;;-143.21;83.27;72994.41;5053092;28;20297;-77
2023/10/19 05:48:06;;;;;;;61.70;34.30;;;;;;;-143.21;83.05;72984.50;5053605;28;20208;-77
2023/10/19 05:50:33;;;;;;;55.93;31.77;;;;;;;-143.21;82.94;72978.53;5062544;28;20297;-77
2023/10/19 05:53:00;;;;;;;63.70;33.93;;;;;;;-143.21;82.33;72966.63;5052874;28;20198;-77
2023/10/19 05:55:28;;;;;;;57.77;34.20;;;;;;;-143.21;82.08;72962.66;5053051;28;20221;-76
2023/10/19 05:57:56;;;;;;;53.63;33.20;;;;;;;-143.21;81.82;72956.72;5068573;28;20204;-76
2023/10/19 06:00:25;;;;;;;53.07;30.40;;;;;;;-143.21;82.43;72948.78;5073454;28;20266;-76
2023/10/19 06:02:52;;;;;;;50.07;30.47;;;;;;;-143.21;82.44;72940.84;5073665;28;20205;-77
2023/10/19 06:05:20;;;;;;;59.17;34.83;;;;;;;-143.21;82.26;72936.88;5073506;28;20201;-77
2023/10/19 06:07:48;;;;;;;68.20;39.00;;;;;;;-143.21;82.39;72944.81;5073459;28;20209;-77
2023/10/19 06:10:20;;;;;;;59.00;36.33;;;;;;;-143.21;83.02;72930.94;5073282;28;20198;-77
2023/10/19 06:12:50;;;;;;;63.70;35.07;;;;;;;-143.21;83.15;72926.97;5073205;28;20190;-77
2023/10/19 06:15:18;;;;;;;60.33;34.07;;;;;;;-143.21;83.56;72901.19;5073528;28;20234;-76
2023/10/19 06:17:45;;;;;;;62.30;34.00;;;;;;;-143.21;83.64;72897.22;5073359;28;20217;-76
2023/10/19 06:20:19;;;;;;;60.10;33.57;;;;;;;-143.21;83.38;72891.25;5073465;28;20625;-77
2023/10/19 06:22:50;;;;;;;59.93;33.20;;;;;;;-143.21;83.36;72881.34;5072314;28;20196;-77
2023/10/19 06:25:18;;;;;;;57.37;31.77;;;;;;;-143.21;82.68;72885.31;5072923;28;20205;-77
2023/10/19 06:27:46;;;;;;;56.23;30.13;;;;;;;-143.21;82.93;72877.38;5071825;28;20266;-77
2023/10/19 06:30:18;;;;;;;51.37;28.93;;;;;;;-143.21;83.25;72873.41;5072564;28;20217;-77
2023/10/19 06:32:47;;;;;;;50.60;26.40;;;;;;;-143.21;82.06;72871.44;5073214;28;20655;-76
2023/10/19 06:35:14;;;;;;;49.10;26.23;;;;;;;-143.21;82.13;72871.44;5072857;28;20254;-77
2023/10/19 06:37:41;;;;;;;43.00;27.10;;;;;;;-143.21;81.94;72861.50;5071962;28;20232;-77
2023/10/19 06:40:11;;;;;;;41.80;25.43;;;;;;;-143.21;82.26;72869.44;5072949;28;20198;-78
2023/10/19 06:42:38;;;;;;;44.83;25.87;;;;;;;-143.21;82.71;72867.47;5072783;28;20276;-77
2023/10/19 06:45:07;;;;;;;47.83;26.60;;;;;;;-143.21;82.59;72847.63;5072942;28;20211;-82
2023/10/19 06:47:37;;;;;;;40.70;24.83;;;;;;;-143.21;81.61;72831.75;5073180;28;20200;-82
2023/10/19 06:50:10;;;;;;;42.37;25.30;;;;;;;-143.21;81.29;72823.81;5072954;28;20197;-82
2023/10/19 06:52:37;;;;;;;43.73;26.10;;;;;;;-143.21;80.93;72796.06;5072583;28;20228;-81
2023/10/19 06:55:36;;;;;;;46.90;25.87;;;;;;;-143.21;80.77;72780.19;5073150;28;20660;-82
2023/10/19 06:58:09;;;;;;;39.53;23.60;;;;;;;-143.21;80.40;72760.34;5072721;28;20226;-81
2023/10/19 07:00:42;;;;;;;40.67;23.27;;;;;;;-143.21;79.53;72732.59;5072806;28;20186;-82
2023/10/19 07:03:13;;;;;;;37.90;22.30;;;;;;;-143.21;78.09;72714.72;5073000;28;20243;-82
2023/10/19 07:05:40;;;;;;;40.60;22.63;;;;;;;-143.21;78.54;72704.81;5072969;28;20250;-81
2023/10/19 07:08:11;;;;;;;44.23;23.07;;;;;;;-143.21;78.37;72704.81;5072661;28;20194;-83
2023/10/19 07:10:38;;;;;;;38.27;21.53;;;;;;;-143.21;78.50;72740.53;5072729;28;20189;-82
2023/10/19 07:13:05;;;;;;;33.53;20.57;;;;;;;-143.21;77.24;72766.31;5072168;28;20227;-82
2023/10/19 07:15:34;;;;;;;30.30;19.43;;;;;;;-143.21;77.56;72782.16;5072625;28;20194;-82
2023/10/19 07:18:07;;;;;;;31.23;19.43;;;;;;;-143.21;78.95;72768.28;5071883;28;20225;-82
2023/10/19 07:20:36;;;;;;;37.90;22.80;;;;;;;-143.21;79.16;72742.50;5072064;28;20629;-81
2023/10/19 07:23:09;;;;;;;39.13;21.20;;;;;;;-143.21;79.08;72718.69;5072234;28;20609;-82
2023/10/19 07:25:42;;;;;;;36.20;21.87;;;;;;;-143.21;78.11;72696.88;5072292;28;20181;-83
2023/10/19 07:28:09;;;;;;;34.27;21.23;;;;;;;-143.21;77.58;72677.06;5072014;28;20193;-82
2023/10/19 07:30:51;;;;;;;43.87;21.77;;;;;;;-143.21;75.80;72653.25;5071404;28;20240;-82
2023/10/19 07:33:18;;;;;;;34.90;21.67;;;;;;;-143.21;75.62;72639.38;5061335;28;20198;-78
2023/10/19 07:35:47;;;;;;;33.23;19.93;;;;;;;-143.21;75.59;72621.53;5057340;28;20240;-79
2023/10/19 07:38:16;;;;;;;38.10;20.87;;;;;;;-143.21;74.94;72607.63;5070440;28;20236;-78
2023/10/19 07:40:44;;;;;;;34.17;20.70;;;;;;;-143.21;74.09;72593.75;5071872;28;20731;-78
2023/10/19 07:43:19;;;;;;;35.67;20.23;;;;;;;-143.21;74.10;72593.75;5063685;28;20288;-78
2023/10/19 07:45:46;;;;;;;32.43;20.90;;;;;;;-143.21;72.66;72601.69;5051450;28;20210;-79
2023/10/19 07:48:15;;;;;;;34.80;20.97;;;;;;;-143.21;73.07;72603.66;5051376;28;20582;-78
2023/10/19 07:50:49;;;;;;;38.53;24.47;;;;;;;-143.21;73.89;72633.41;5060140;28;20683;-78
2023/10/19 07:53:17;;;;;;;42.30;26.53;;;;;;;-143.21;75.28;72645.31;5051238;28;20193;-77
2023/10/19 07:55:43;;;;;;;44.20;25.27;;;;;;;-143.21;74.47;72637.38;5050994;28;20198;-79
2023/10/19 07:58:10;;;;;;;40.27;25.77;;;;;;;-143.21;74.85;72671.09;5068481;28;20225;-78
2023/10/19 08:00:47;;;;;;;38.13;24.83;;;;;;;-143.21;75.70;72712.75;5071650;28;20625;-78
2023/10/19 08:03:15;;;;;;;40.83;24.60;;;;;;;-143.21;76.88;72742.50;5071360;28;20197;-77
2023/10/19 08:05:43;;;;;;;38.97;24.60;;;;;;;-143.21;78.17;72740.53;5071431;28;20283;-78
2023/10/19 08:08:12;;;;;;;42.20;25.40;;;;;;;-143.21;78.13;72728.63;5071416;28;20189;-78
2023/10/19 08:11:21;;;;;;;41.17;25.67;;;;;;;-143.21;78.15;72696.88;5071381;28;20198;-79
2023/10/19 08:13:52;;;;;;;38.20;24.10;;;;;;;-143.21;77.19;72681.03;5036686;28;20205;-78
2023/10/19 08:16:28;;;;;;;38.47;24.30;;;;;;;-143.21;76.90;72681.03;5071340;28;20206;-77
2023/10/19 08:18:55;;;;;;;37.90;23.20;;;;;;;-143.21;76.72;72673.09;5071672;28;20181;-77
2023/10/19 08:21:23;;;;;;;40.33;23.23;;;;;;;-143.21;76.93;72657.22;5071410;28;20233;-77
2023/10/19 08:23:53;;;;;;;37.37;24.00;;;;;;;-143.21;76.36;72625.47;5070671;28;20201;-78
2023/10/19 08:26:21;;;;;;;45.20;24.67;;;;;;;-143.21;75.93;72591.78;5070707;28;20314;-78
2023/10/19 08:28:49;;;;;;;40.60;23.83;;;;;;;-143.21;74.78;72564.00;5070221;28;20213;-78
2023/10/19 08:31:16;;;;;;;39.30;22.30;;;;;;;-143.21;73.45;72534.25;5071383;28;20232;-78
2023/10/19 08:33:43;;;;;;;38.47;21.87;;;;;;;-143.21;72.99;72500.53;5070825;28;20198;-77
2023/10/19 08:36:20;;;;;;;41.47;22.03;;;;;;;-143.21;71.71;72492.59;5070767;28;20197;-79
2023/10/19 08:38:47;;;;;;;31.90;21.73;;;;;;;-143.21;71.50;72506.50;5071075;28;20177;-78
2023/10/19 08:41:16;;;;;;;33.00;21.50;;;;;;;-143.21;72.09;72478.72;5070833;28;20243;-78
2023/10/19 08:43:44;;;;;;;33.10;20.57;;;;;;;-143.21;71.60;72419.22;5070807;28;20201;-78
2023/10/19 08:46:12;;;;;;;33.23;20.90;;;;;;;-143.21;68.83;72363.69;5069956;28;20197;-78
2023/10/19 08:48:39;;;;;;;30.83;19.50;;;;;;;-143.21;67.47;72312.13;5070410;28;20247;-78
2023/10/19 08:51:13;;;;;;;31.20;20.67;;;;;;;-143.21;65.52;72294.28;5070527;28;20199;-77
2023/10/19 08:53:40;;;;;;;26.93;18.70;;;;;;;-143.21;64.67;72278.41;5070015;28;20205;-78
2023/10/19 08:56:08;;;;;;;30.10;17.83;;;;;;;-143.21;64.70;72246.69;5070392;28;20308;-77
2023/10/19 08:58:36;;;;;;;26.80;17.40;;;;;;;-143.21;63.90;72218.94;5070590;28;20617;-77
2023/10/19 09:01:09;;;;;;;26.37;18.67;;;;;;;-143.21;63.51;72220.91;5069961;28;20217;-77
2023/10/19 09:03:36;;;;;;;27.77;18.20;;;;;;;-143.21;63.04;72230.81;5070396;28;20197;-78
2023/10/19 09:06:05;;;;;;;29.27;17.73;;;;;;;-143.21;63.91;72179.25;5070755;28;20193;-78
2023/10/19 09:08:39;;;;;;;26.87;19.57;;;;;;;-143.21;61.58;72103.91;5070853;28;20189;-78
2023/10/19 09:11:08;;;;;;;27.63;18.50;;;;;;;-143.21;59.94;72058.31;5070475;28;20193;-77
2023/10/19 09:13:51;;;;;;;27.00;19.07;;;;;;;-143.21;58.81;72020.63;5070662;28;20198;-78
2023/10/19 09:16:20;;;;;;;30.43;18.83;;;;;;;-143.21;58.39;71969.06;5070378;28;20190;-77
2023/10/19 09:18:56;;;;;;;23.60;15.90;;;;;;;-143.21;57.12;71943.28;5070453;28;20692;-78
2023/10/19 09:21:25;;;;;;;24.10;15.33;;;;;;;-143.21;57.35;71907.59;5070544;28;20177;-78
2023/10/19 09:23:52;;;;;;;21.90;14.53;;;;;;;-143.21;56.57;71887.78;5070221;28;20580;-78
2023/10/19 09:26:21;;;;;;;24.90;16.20;;;;;;;-143.21;56.03;71903.63;5070320;28;20201;-78
2023/10/19 09:28:50;;;;;;;18.93;12.90;;;;;;;-143.21;56.19;71893.72;5070310;28;20638;-78
2023/10/19 09:31:18;;;;;;;17.43;11.70;;;;;;;-143.21;56.07;71871.91;5070536;28;20222;-78
2023/10/19 09:33:47;;;;;;;16.97;11.47;;;;;;;-143.21;55.98;71852.06;5056018;28;20206;-78
2023/10/19 09:36:14;;;;;;;16.60;11.10;;;;;;;-143.21;55.70;71842.16;5061134;28;20209;-79
2023/10/19 09:38:48;;;;;;;19.30;11.60;;;;;;;-143.21;55.82;71838.19;5069561;28;20225;-78
2023/10/19 09:41:18;;;;;;;17.70;10.97;;;;;;;-143.21;55.42;71848.09;5069770;28;20213;-79
2023/10/19 09:43:50;;;;;;;18.70;10.63;;;;;;;-143.21;55.82;71854.06;5070058;28;20571;-78
2023/10/19 09:46:23;;;;;;;15.70;11.27;;;;;;;-143.21;55.95;71863.97;5069782;28;20205;-78
2023/10/19 09:48:51;;;;;;;17.80;10.37;;;;;;;-143.21;56.27;71863.97;5070464;28;20259;-78
2023/10/19 09:51:20;;;;;;;14.87;10.80;;;;;;;-143.21;57.08;71915.53;5069786;28;20209;-79
2023/10/19 09:53:57;;;;;;;20.20;11.50;;;;;;;-143.21;59.05;71992.88;5069567;28;21076;-79
2023/10/19 09:56:31;;;;;;;14.17;11.37;;;;;;;-143.21;60.59;72048.38;5070224;28;20182;-79
2023/10/19 09:59:05;;;;;;;16.63;10.83;;;;;;;-143.21;59.63;72024.59;5073733;28;20588;-78
2023/10/19 10:02:07;;;;;;;20.77;10.73;;;;;;;-143.21;59.55;71996.81;5073854;28;20182;-78
2023/10/19 10:04:36;;;;;;;15.57;10.73;;;;;;;-143.21;59.11;72002.78;5073775;28;20220;-79
2023/10/19 10:07:09;;;;;;;16.67;11.33;;;;;;;-143.21;60.16;72058.31;5072803;28;20551;-77
2023/10/19 10:09:43;;;;;;;15.37;10.93;;;;;;;-143.21;61.40;72076.16;5072371;28;20285;-79
2023/10/19 10:12:21;;;;;;;16.00;10.73;;;;;;;-143.21;61.24;71986.91;5072560;28;20257;-78
2023/10/19 10:14:57;;;;;;;13.67;9.90;;;;;;;-143.21;59.30;71909.56;5072311;28;20721;-78
2023/10/19 10:17:25;;;;;;;15.70;9.90;;;;;;;-143.21;57.11;71784.66;5072296;28;20220;-79
2023/10/19 10:19:56;;;;;;;17.73;10.63;;;;;;;-143.21;54.08;71659.75;5072242;28;20201;-78
2023/10/19 10:22:23;;;;;;;13.80;9.67;;;;;;;-143.21;52.19;71546.72;5071404;28;20691;-79
2023/10/19 10:24:55;;;;;;;15.35;9.88;;;;;;;-143.21;50.47;71429.75;5073514;28;20205;-80
2023/10/19 10:27:23;;;;;;;15.80;10.93;;;;;;;-143.21;48.40;71324.66;5072538;28;20236;-78
2023/10/19 10:29:58;;;;;;;15.25;11.05;;;;;;;-143.21;46.82;71227.53;5072920;28;20290;-77
2023/10/19 10:32:47;;;;;;;16.83;11.02;;;;;;;-143.21;45.20;71158.13;5052813;28;20204;-78
2023/10/19 10:35:47;;;;;;;14.02;10.25;;;;;;;-143.21;43.57;71086.75;5064831;28;20209;-79
2023/10/19 10:38:14;;;;;;;17.65;10.07;;;;;;;-143.21;42.46;71078.84;5067944;28;20300;-78
2023/10/19 10:40:44;;;;;;;17.33;9.18;;;;;;;-143.21;41.81;71055.06;5073105;28;20589;-79
2023/10/19 10:43:12;;;;;;;15.35;9.25;;;;;;;-143.21;42.31;71019.38;5073210;28;20205;-78
2023/10/19 10:45:40;;;;;;;11.93;9.40;;;;;;;-143.21;41.56;70965.84;5072708;28;20213;-79
2023/10/19 10:48:13;;;;;;;13.35;8.85;;;;;;;-143.21;40.53;70918.25;5072999;28;20193;-80
2023/10/19 10:50:41;;;;;;;14.27;8.70;;;;;;;-143.21;39.41;70858.78;5073107;28;20182;-77
2023/10/19 10:53:08;;;;;;;13.98;8.70;;;;;;;-143.21;38.85;70825.09;5073057;28;20641;-78
2023/10/19 10:55:38;;;;;;;14.98;9.50;;;;;;;-143.21;38.86;70831.03;5072358;28;20197;-78
2023/10/19 10:58:05;;;;;;;11.65;8.98;;;;;;;-143.21;38.80;70801.31;5072520;28;20268;-77
2023/10/19 11:00:51;;;;;;;12.57;8.75;;;;;;;-143.21;38.37;70759.69;5072460;28;20204;-78
2023/10/19 11:03:19;;;;;;;16.83;9.38;;;;;;;-143.21;37.59;70743.81;5072761;28;20210;-78
2023/10/19 11:05:46;;;;;;;12.43;8.57;;;;;;;-143.21;37.39;70749.78;5072509;28;20193;-78
2023/10/19 11:08:15;;;;;;;14.20;8.82;;;;;;;-143.21;37.16;70704.19;5071634;28;20225;-77
2023/10/19 11:10:46;;;;;;;14.40;9.20;;;;;;;-143.21;36.59;70676.44;5072481;28;20549;-77
2023/10/19 11:13:15;;;;;;;17.73;9.45;;;;;;;-143.21;36.37;70638.75;5072749;28;20189;-78
2023/10/19 11:15:51;;;;;;;11.50;9.15;;;;;;;-143.21;35.33;70620.94;5072178;28;20190;-78